Time;durP1;ratioP1;P1;durP2;ratioP2;P2;SDS_P1;SDS_P2;PMS_P1;PMS_P2;Temp;Humidity;BMP_temperature;BMP_pressure;BME280_temperature;BME280_humidity;BME280_pressure;Samples;Min_cycle;Max_cycle;Signal;HPM_P1;HPM_P2
2021/03/06 00:00:10;;;;;;;24.52;20.58;;;;;;;10.33;82.10;100688.00;5093276;28;20054;-74
2021/03/06 00:02:37;;;;;;;19.88;17.48;;;;;;;10.28;81.84;100691.03;5092728;28;20024;-73
2021/03/06 00:05:05;;;;;;;21.08;18.33;;;;;;;10.33;81.82;100681.63;5093349;28;20028;-72
2021/03/06 00:07:31;;;;;;;23.13;17.60;;;;;;;10.31;81.80;100676.41;5093368;28;20024;-73
2021/03/06 00:09:56;;;;;;;22.65;19.23;;;;;;;10.33;82.12;100681.63;5094687;28;20371;-74
2021/03/06 00:12:22;;;;;;;20.98;16.75;;;;;;;10.40;81.58;100677.13;5094617;28;20020;-73
2021/03/06 00:14:48;;;;;;;19.20;15.82;;;;;;;10.37;81.41;100683.38;5092384;28;20024;-74
2021/03/06 00:17:13;;;;;;;17.58;14.40;;;;;;;10.35;81.86;100677.34;5092541;28;20039;-72
2021/03/06 00:19:39;;;;;;;14.82;13.32;;;;;;;10.33;81.75;100676.88;5093454;28;20055;-73
2021/03/06 00:22:05;;;;;;;17.23;13.73;;;;;;;10.31;81.74;100681.97;5096329;28;20052;-72
2021/03/06 00:24:30;;;;;;;18.65;15.73;;;;;;;10.23;81.89;100661.50;5096121;28;20035;-72
2021/03/06 00:27:00;;;;;;;18.45;15.45;;;;;;;10.29;81.26;100673.19;5096143;28;20055;-74
2021/03/06 00:29:26;;;;;;;18.23;16.08;;;;;;;10.31;81.80;100679.19;5096138;28;20077;-74
2021/03/06 00:31:52;;;;;;;19.55;15.60;;;;;;;10.33;81.48;100676.88;5096378;28;20032;-72
2021/03/06 00:34:17;;;;;;;18.27;15.88;;;;;;;10.38;81.86;100679.41;5096347;28;20032;-74
2021/03/06 00:36:43;;;;;;;17.10;14.60;;;;;;;10.40;81.43;100679.91;5095903;28;20032;-72
2021/03/06 00:39:09;;;;;;;19.48;15.52;;;;;;;10.39;81.25;100681.06;5096456;28;20067;-74
2021/03/06 00:41:34;;;;;;;17.13;14.50;;;;;;;10.35;81.56;100684.88;5095916;28;20577;-72
2021/03/06 00:44:00;;;;;;;17.65;15.27;;;;;;;10.32;82.24;100686.38;5095774;28;20058;-73
2021/03/06 00:46:26;;;;;;;19.05;14.88;;;;;;;10.35;81.89;100682.91;5095711;28;20169;-73
2021/03/06 00:48:52;;;;;;;14.98;13.00;;;;;;;10.32;82.23;100680.00;5095836;28;20020;-73
2021/03/06 00:51:18;;;;;;;16.10;14.43;;;;;;;10.32;82.04;100685.56;5095772;28;20032;-73
2021/03/06 00:53:44;;;;;;;17.13;15.32;;;;;;;10.29;82.02;100678.75;5095900;28;20028;-74
2021/03/06 00:56:09;;;;;;;17.48;15.68;;;;;;;10.24;82.21;100670.63;5095853;28;20413;-72
2021/03/06 00:58:35;;;;;;;15.48;13.00;;;;;;;10.23;82.02;100677.34;5095545;28;20501;-72
2021/03/06 01:01:06;;;;;;;16.67;13.40;;;;;;;10.19;82.25;100665.28;5095565;28;20063;-72
2021/03/06 01:03:31;;;;;;;15.68;11.15;;;;;;;10.20;81.83;100666.91;5095439;28;20032;-72
2021/03/06 01:05:57;;;;;;;12.98;11.63;;;;;;;10.28;81.43;100679.91;5095303;28;20039;-74
2021/03/06 01:08:23;;;;;;;11.82;10.48;;;;;;;10.27;81.05;100677.47;5095335;28;20030;-74
2021/03/06 01:10:49;;;;;;;12.05;10.45;;;;;;;10.26;81.32;100671.09;5095606;28;20062;-74
2021/03/06 01:13:15;;;;;;;12.95;10.25;;;;;;;10.23;81.25;100674.56;5095249;28;20444;-73
2021/03/06 01:15:41;;;;;;;11.50;10.35;;;;;;;10.25;81.39;100683.38;5095266;28;20027;-74
2021/03/06 01:18:07;;;;;;;11.27;10.13;;;;;;;10.26;81.58;100687.78;5095165;28;20111;-73
2021/03/06 01:20:34;;;;;;;14.57;11.98;;;;;;;10.26;81.42;100684.19;5094881;28;20473;-72
2021/03/06 01:23:00;;;;;;;12.90;10.80;;;;;;;10.25;81.72;100677.81;5095077;28;20062;-74
2021/03/06 01:25:25;;;;;;;11.57;10.40;;;;;;;10.21;81.80;100679.63;5094942;28;20060;-73
2021/03/06 01:27:51;;;;;;;13.68;11.40;;;;;;;10.17;82.02;100673.13;5095653;28;20085;-73
2021/03/06 01:30:20;;;;;;;10.82;9.73;;;;;;;10.14;81.85;100673.84;5094774;28;20535;-74
2021/03/06 01:32:46;;;;;;;10.82;9.77;;;;;;;10.16;82.31;100671.53;5094254;28;20031;-74
2021/03/06 01:35:12;;;;;;;11.38;10.18;;;;;;;10.12;81.84;100667.81;5094838;28;20029;-73
2021/03/06 01:37:40;;;;;;;10.77;9.68;;;;;;;10.12;81.63;100670.59;5095400;28;20023;-74
2021/03/06 01:40:12;;;;;;;11.50;10.30;;;;;;;10.12;81.50;100670.59;5094438;28;20032;-73
2021/03/06 01:42:38;;;;;;;10.27;9.18;;;;;;;10.07;81.34;100674.44;5095457;28;20119;-72
2021/03/06 01:45:07;;;;;;;10.80;8.90;;;;;;;10.06;81.70;100666.44;5095217;28;20031;-74
2021/03/06 01:47:33;;;;;;;10.35;9.35;;;;;;;10.05;81.27;100662.03;5094613;28;20077;-74
2021/03/06 01:49:59;;;;;;;10.13;9.02;;;;;;;10.00;81.83;100662.25;5094851;28;20472;-74
2021/03/06 01:52:26;;;;;;;10.65;9.55;;;;;;;9.95;81.71;100666.06;5094894;28;20063;-73
2021/03/06 01:54:53;;;;;;;9.10;8.27;;;;;;;9.95;81.89;100666.88;5077770;28;20109;-72
2021/03/06 01:57:21;;;;;;;9.90;8.23;;;;;;;9.89;81.50;100656.34;5094436;28;20020;-74
2021/03/06 01:59:47;;;;;;;9.73;7.10;;;;;;;10.00;80.94;100667.81;5095634;28;20085;-73
2021/03/06 02:02:13;;;;;;;8.52;7.55;;;;;;;9.91;81.27;100665.16;5094332;28;20478;-72
2021/03/06 02:04:38;;;;;;;9.15;8.02;;;;;;;9.83;81.39;100660.53;5094259;28;20032;-73
2021/03/06 02:07:04;;;;;;;9.32;7.65;;;;;;;9.85;81.54;100667.34;5094555;28;20028;-73
2021/03/06 02:09:30;;;;;;;9.60;8.35;;;;;;;9.84;81.57;100665.72;5094490;28;20029;-72
2021/03/06 02:12:14;;;;;;;9.55;8.07;;;;;;;9.87;81.60;100664.25;5094175;28;20382;-72
2021/03/06 02:14:58;;;;;;;;;;;;;;;9.86;81.42;100674.53;5094494;28;20040;-74
2021/03/06 02:17:29;;;;;;;9.95;8.00;;;;;;;9.88;81.04;100666.66;5094658;28;19951;-73
2021/03/06 02:20:09;;;;;;;9.05;8.15;;;;;;;9.89;80.91;100668.28;5093752;28;20083;-72
2021/03/06 02:22:54;;;;;;;9.23;8.35;;;;;;;9.86;81.30;100668.19;5094570;28;20024;-75
2021/03/06 02:25:28;;;;;;;9.45;7.13;;;;;;;9.70;81.13;100634.69;5094296;28;20032;-73
2021/03/06 02:28:32;;;;;;;9.05;8.15;;;;;;;9.87;80.75;100667.03;5094198;28;20022;-74
2021/03/06 02:30:58;;;;;;;9.38;7.63;;;;;;;9.88;80.20;100671.41;5056694;28;20127;-72
2021/03/06 02:33:29;;;;;;;10.10;8.38;;;;;;;9.87;80.31;100667.81;5096673;28;20119;-72
2021/03/06 02:35:59;;;;;;;8.55;7.57;;;;;;;9.90;80.13;100675.44;5094564;28;20035;-73
2021/03/06 02:38:29;;;;;;;8.60;7.70;;;;;;;9.90;80.32;100669.09;5093885;28;20024;-73
2021/03/06 02:40:57;;;;;;;8.38;7.40;;;;;;;9.90;80.40;100674.66;5093576;28;20035;-74
2021/03/06 02:43:27;;;;;;;8.73;7.88;;;;;;;9.88;80.19;100666.66;5077399;28;20039;-74
2021/03/06 02:45:55;;;;;;;8.13;7.32;;;;;;;9.89;80.10;100667.47;5093393;28;20024;-73
2021/03/06 02:48:23;;;;;;;8.00;7.30;;;;;;;9.91;80.00;100674.31;5093746;28;20024;-73
2021/03/06 02:50:55;;;;;;;8.65;7.13;;;;;;;9.88;79.89;100672.22;5093360;28;20028;-72
2021/03/06 02:53:21;;;;;;;9.45;8.32;;;;;;;9.97;79.81;100670.16;5093913;28;20030;-74
2021/03/06 02:55:47;;;;;;;10.52;7.72;;;;;;;9.89;80.36;100673.03;5093610;28;20024;-73
2021/03/06 02:58:24;;;;;;;10.57;7.85;;;;;;;9.82;80.61;100668.06;5092994;28;20024;-73
2021/03/06 03:00:54;;;;;;;9.93;8.07;;;;;;;9.72;81.24;100668.50;5093250;28;20028;-73
2021/03/06 03:03:52;;;;;;;11.82;7.78;;;;;;;9.69;81.02;100680.28;5093216;28;20035;-73
2021/03/06 03:06:31;;;;;;;11.80;8.57;;;;;;;9.70;80.67;100676.38;5058623;28;20040;-73
2021/03/06 03:09:21;;;;;;;10.38;8.52;;;;;;;9.68;80.65;100684.22;5094914;28;20016;-74
2021/03/06 03:12:03;;;;;;;9.50;7.20;;;;;;;9.56;81.28;100682.25;5093093;28;20028;-73
2021/03/06 03:14:37;;;;;;;9.45;7.47;;;;;;;9.59;81.51;100680.75;5093588;28;20020;-74
2021/03/06 03:17:10;;;;;;;13.55;7.90;;;;;;;9.50;81.18;100677.25;5093031;28;20036;-73
2021/03/06 03:19:43;;;;;;;10.02;8.02;;;;;;;9.49;81.60;100686.75;5093167;28;20056;-73
2021/03/06 03:22:10;;;;;;;31.00;18.60;;;;;;;9.48;81.48;100694.28;5092900;28;20032;-72
2021/03/06 03:24:43;;;;;;;68.88;37.30;;;;;;;9.49;81.48;100692.31;5093314;28;20354;-73
2021/03/06 03:27:11;;;;;;;71.35;44.28;;;;;;;9.47;81.01;100692.63;5093341;28;20043;-73
2021/03/06 03:29:43;;;;;;;62.53;42.05;;;;;;;9.48;81.46;100693.44;5092778;28;20089;-73
2021/03/06 03:32:11;;;;;;;55.80;39.67;;;;;;;9.52;81.14;100700.75;5093284;28;20436;-73
2021/03/06 03:34:41;;;;;;;44.20;34.45;;;;;;;9.55;80.94;100694.50;5092929;28;20020;-74
2021/03/06 03:37:11;;;;;;;46.63;32.25;;;;;;;9.54;80.80;100695.69;5092706;28;20031;-72
2021/03/06 03:39:39;;;;;;;36.60;28.95;;;;;;;9.57;80.35;100706.09;5093174;28;20343;-73
2021/03/06 03:42:07;;;;;;;34.30;27.33;;;;;;;9.57;80.63;100706.09;5092961;28;20510;-73
2021/03/06 03:44:34;;;;;;;31.30;25.50;;;;;;;9.63;80.33;100703.91;5093152;28;20051;-72
2021/03/06 03:47:00;;;;;;;24.10;21.33;;;;;;;9.61;79.92;100707.03;5092875;28;20028;-73
2021/03/06 03:49:29;;;;;;;25.25;21.05;;;;;;;9.61;80.00;100712.59;5093151;28;20024;-73
2021/03/06 03:51:55;;;;;;;25.00;21.65;;;;;;;9.62;80.21;100710.63;5092916;28;20054;-74
2021/03/06 03:54:21;;;;;;;23.95;21.55;;;;;;;9.67;79.54;100711.22;5093538;28;20470;-72
2021/03/06 03:56:47;;;;;;;23.20;20.42;;;;;;;9.62;79.83;100713.41;5097088;28;20024;-72
2021/03/06 03:59:12;;;;;;;22.80;20.35;;;;;;;9.68;79.52;100712.03;5096719;28;20494;-73
2021/03/06 04:01:46;;;;;;;14.63;12.00;;;;;;;9.74;79.19;100715.38;5096600;28;20034;-73
2021/03/06 04:04:25;;;;;;;12.15;10.98;;;;;;;9.71;79.43;100712.16;5097376;28;20028;-73
2021/03/06 04:06:51;;;;;;;10.55;8.93;;;;;;;9.71;79.59;100711.34;5097108;28;20042;-74
2021/03/06 04:09:17;;;;;;;9.05;8.15;;;;;;;9.69;79.39;100719.19;5097124;28;20366;-72
2021/03/06 04:11:42;;;;;;;9.75;8.70;;;;;;;9.69;79.77;100722.81;5096457;28;20559;-74
2021/03/06 04:14:08;;;;;;;9.07;8.18;;;;;;;9.68;79.71;100712.03;5096298;28;20027;-73
2021/03/06 04:16:37;;;;;;;11.77;8.32;;;;;;;9.75;79.89;100717.00;5096358;28;20096;-74
2021/03/06 04:19:02;;;;;;;11.98;8.82;;;;;;;9.74;79.65;100723.72;5096906;28;20032;-72
2021/03/06 04:21:28;;;;;;;16.05;11.60;;;;;;;9.72;79.91;100718.50;5100194;28;20080;-72
2021/03/06 04:23:56;;;;;;;18.02;12.80;;;;;;;9.79;79.65;100726.28;5099508;28;20470;-73
2021/03/06 04:26:22;;;;;;;16.90;14.27;;;;;;;9.80;79.66;100717.63;5099542;28;20088;-73
2021/03/06 04:28:47;;;;;;;14.30;12.85;;;;;;;9.81;79.08;100722.00;5100004;28;20114;-72
2021/03/06 04:31:13;;;;;;;13.00;10.60;;;;;;;9.80;79.06;100725.97;5099491;28;20473;-72
2021/03/06 04:33:41;;;;;;;11.45;9.18;;;;;;;9.76;79.30;100730.56;5099427;28;20038;-74
2021/03/06 04:36:07;;;;;;;8.45;7.43;;;;;;;9.74;79.91;100730.09;5099644;28;20046;-73
2021/03/06 04:38:35;;;;;;;7.90;6.93;;;;;;;9.75;79.96;100728.97;5099390;28;20474;-72
2021/03/06 04:41:01;;;;;;;8.75;7.68;;;;;;;9.75;79.61;100728.97;5099360;28;20023;-74
2021/03/06 04:43:27;;;;;;;8.77;7.68;;;;;;;9.75;79.61;100720.63;5099895;28;20032;-73
2021/03/06 04:45:52;;;;;;;14.15;12.27;;;;;;;9.77;79.85;100726.63;5099220;28;20506;-73
2021/03/06 04:48:21;;;;;;;14.80;11.48;;;;;;;9.80;79.80;100731.53;5099770;28;20032;-72
2021/03/06 04:50:47;;;;;;;14.13;12.65;;;;;;;9.77;80.20;100726.63;5099288;28;20110;-74
2021/03/06 04:53:15;;;;;;;16.52;13.30;;;;;;;9.79;80.29;100734.63;5099534;28;20118;-73
2021/03/06 04:55:44;;;;;;;19.13;14.38;;;;;;;9.76;80.28;100733.34;5100419;28;20035;-72
2021/03/06 04:58:09;;;;;;;18.27;15.10;;;;;;;9.76;80.25;100738.91;5100884;28;20089;-74
2021/03/06 05:00:35;;;;;;;17.63;13.57;;;;;;;9.75;80.11;100739.22;5099598;28;20039;-72
2021/03/06 05:03:02;;;;;;;12.55;9.43;;;;;;;9.80;80.31;100742.63;5099376;28;20043;-72
2021/03/06 05:05:31;;;;;;;11.13;9.18;;;;;;;9.78;80.39;100744.13;5097844;28;20020;-74
2021/03/06 05:07:56;;;;;;;9.48;8.32;;;;;;;9.69;80.85;100747.81;5098657;28;20027;-73
2021/03/06 05:10:23;;;;;;;9.38;8.40;;;;;;;9.64;81.04;100748.03;5099002;28;20111;-73
2021/03/06 05:12:52;;;;;;;10.45;8.52;;;;;;;9.61;81.45;100748.69;5099162;28;20374;-73
2021/03/06 05:15:20;;;;;;;8.52;7.60;;;;;;;9.61;80.88;100748.69;5098921;28;20023;-72
2021/03/06 05:17:48;;;;;;;10.63;7.90;;;;;;;9.58;80.87;100746.59;5098571;28;20040;-72
2021/03/06 05:20:14;;;;;;;8.05;7.18;;;;;;;9.60;81.08;100763.75;5094739;28;20077;-73
2021/03/06 05:22:39;;;;;;;9.18;8.07;;;;;;;9.59;80.59;100764.09;5095030;28;20044;-72
2021/03/06 05:25:05;;;;;;;8.45;7.63;;;;;;;9.57;80.99;100758.06;5095011;28;20024;-73
2021/03/06 05:27:31;;;;;;;9.65;7.97;;;;;;;9.58;80.92;100756.91;5094992;28;20040;-72
2021/03/06 05:29:57;;;;;;;9.32;8.40;;;;;;;9.58;80.63;100757.72;5095300;28;20085;-74
2021/03/06 05:32:22;;;;;;;10.50;8.35;;;;;;;9.54;80.75;100755.97;5094930;28;20367;-73
2021/03/06 05:34:48;;;;;;;9.45;8.43;;;;;;;9.48;80.68;100765.66;5094931;28;20020;-72
2021/03/06 05:37:14;;;;;;;9.50;8.45;;;;;;;9.54;81.06;100779.03;5095431;28;20035;-74
2021/03/06 05:39:39;;;;;;;10.27;7.95;;;;;;;9.51;81.00;100778.88;5094772;28;20381;-74
2021/03/06 05:42:05;;;;;;;9.52;8.48;;;;;;;9.45;81.01;100776.31;5095295;28;20508;-72
2021/03/06 05:44:34;;;;;;;8.48;7.60;;;;;;;9.55;80.74;100780.63;5094896;28;20020;-72
2021/03/06 05:47:01;;;;;;;10.95;8.45;;;;;;;9.54;80.59;100783.75;5094942;28;20059;-72
2021/03/06 05:49:26;;;;;;;9.98;7.93;;;;;;;9.51;80.65;100784.44;5094531;28;20028;-73
2021/03/06 05:51:52;;;;;;;9.82;8.52;;;;;;;9.44;80.80;100783.03;5094540;28;20043;-74
2021/03/06 05:54:21;;;;;;;10.57;9.15;;;;;;;9.41;81.00;100800.34;5094785;28;20059;-72
2021/03/06 05:56:51;;;;;;;9.57;8.50;;;;;;;9.42;81.23;100796.41;5094740;28;20039;-74
2021/03/06 05:59:21;;;;;;;11.75;9.23;;;;;;;9.49;81.09;100808.97;5094686;28;20482;-73
2021/03/06 06:01:50;;;;;;;10.95;9.85;;;;;;;9.49;80.87;100806.19;5094630;28;20032;-73
2021/03/06 06:04:17;;;;;;;11.85;10.38;;;;;;;9.54;80.80;100806.00;5094534;28;20024;-73
2021/03/06 06:06:43;;;;;;;14.18;12.07;;;;;;;9.65;80.19;100809.97;5094792;28;20028;-74
2021/03/06 06:09:09;;;;;;;13.65;11.52;;;;;;;9.66;80.32;100811.59;5094191;28;20035;-73
2021/03/06 06:11:35;;;;;;;12.45;10.80;;;;;;;9.75;80.05;100817.88;5094189;28;20032;-73
2021/03/06 06:14:03;;;;;;;11.65;10.45;;;;;;;9.82;79.43;100823.69;5094151;28;20020;-73
2021/03/06 06:16:30;;;;;;;11.90;10.43;;;;;;;9.85;79.28;100828.53;5094027;28;20055;-73
2021/03/06 06:18:56;;;;;;;13.32;10.98;;;;;;;9.87;78.76;100831.81;5093961;28;20068;-73
2021/03/06 06:21:39;;;;;;;13.23;10.68;;;;;;;9.88;78.56;100829.84;5093500;28;20502;-73
2021/03/06 06:24:22;;;;;;;14.48;10.70;;;;;;;9.80;78.90;100834.34;5094374;28;20032;-74
2021/03/06 06:26:59;;;;;;;16.27;11.82;;;;;;;9.65;79.33;100829.41;5094481;28;20028;-73
2021/03/06 06:29:40;;;;;;;14.43;12.40;;;;;;;9.71;79.00;100841.94;5093756;28;20031;-73
2021/03/06 06:32:07;;;;;;;15.25;13.60;;;;;;;9.53;80.03;100838.47;5094610;28;20028;-72
2021/03/06 06:34:35;;;;;;;14.20;12.73;;;;;;;9.63;80.29;100842.81;5094859;28;20036;-72
2021/03/06 06:37:10;;;;;;;13.40;11.95;;;;;;;9.85;79.56;100845.22;5095258;28;20108;-73
2021/03/06 06:39:36;;;;;;;13.77;11.65;;;;;;;9.93;79.87;100841.56;5093613;28;20032;-73
2021/03/06 06:42:04;;;;;;;13.25;11.95;;;;;;;10.11;79.31;100852.50;5094190;28;20024;-73
2021/03/06 06:44:31;;;;;;;13.50;11.45;;;;;;;10.26;78.53;100859.41;5093721;28;20055;-73
2021/03/06 06:46:58;;;;;;;14.50;11.10;;;;;;;10.45;78.30;100857.72;5093557;28;20032;-73
2021/03/06 06:49:24;;;;;;;12.73;11.07;;;;;;;10.66;77.15;100862.38;5093459;28;20106;-72
2021/03/06 06:52:03;;;;;;;17.65;11.52;;;;;;;10.85;75.85;100870.94;5092947;28;20028;-72
2021/03/06 06:54:30;;;;;;;11.77;10.57;;;;;;;11.13;75.19;100875.78;5093108;28;20058;-73
2021/03/06 06:57:13;;;;;;;12.30;9.55;;;;;;;11.29;73.86;100876.69;5093299;28;20024;-72
2021/03/06 06:59:50;;;;;;;10.38;9.32;;;;;;;11.44;73.49;100881.53;5093574;28;20034;-72
2021/03/06 07:02:19;;;;;;;14.48;9.43;;;;;;;11.62;72.69;100876.53;5093810;28;20043;-73
2021/03/06 07:04:47;;;;;;;11.07;8.68;;;;;;;11.93;71.85;100878.66;5093150;28;20024;-73
2021/03/06 07:07:14;;;;;;;9.98;8.98;;;;;;;12.84;69.78;100875.88;5093915;28;20115;-73
2021/03/06 07:09:55;;;;;;;11.27;8.57;;;;;;;13.61;66.25;100871.66;5093075;28;20024;-71
2021/03/06 07:12:22;;;;;;;11.27;8.82;;;;;;;14.41;63.18;100872.84;5093116;28;20027;-73
2021/03/06 07:14:50;;;;;;;9.90;8.05;;;;;;;15.29;60.39;100877.53;5093017;28;20115;-74
2021/03/06 07:17:16;;;;;;;10.30;8.70;;;;;;;15.96;58.14;100877.66;5093597;28;20028;-74
2021/03/06 07:19:45;;;;;;;8.05;7.35;;;;;;;15.68;55.68;100890.13;5092681;28;20535;-74
2021/03/06 07:22:14;;;;;;;10.80;8.48;;;;;;;16.08;54.67;100894.22;5092666;28;20024;-72
2021/03/06 07:24:42;;;;;;;8.52;7.68;;;;;;;16.20;53.77;100899.59;5092964;28;20416;-73
2021/03/06 07:27:10;;;;;;;13.73;9.73;;;;;;;16.02;54.66;100909.00;5092783;28;20442;-73
2021/03/06 07:29:39;;;;;;;10.80;8.70;;;;;;;15.84;54.41;100900.34;5092111;28;20458;-73
2021/03/06 07:32:12;;;;;;;11.48;10.27;;;;;;;15.96;54.51;100895.28;5093098;28;20028;-71
2021/03/06 07:34:40;;;;;;;13.50;11.02;;;;;;;15.71;54.49;100905.38;5093000;28;20032;-72
2021/03/06 07:37:09;;;;;;;11.48;9.05;;;;;;;15.51;55.67;100904.69;5093228;28;20374;-72
2021/03/06 07:39:41;;;;;;;12.30;11.00;;;;;;;15.97;54.44;100912.94;5092696;28;20032;-73
2021/03/06 07:42:36;;;;;;;28.92;19.92;;;;;;;16.14;54.53;100909.56;5092906;28;20470;-71
2021/03/06 07:45:09;;;;;;;30.65;18.42;;;;;;;16.22;52.90;100908.44;5083421;28;20054;-72
2021/03/06 07:47:38;;;;;;;25.35;18.73;;;;;;;16.41;53.38;100912.25;5092607;28;20024;-72
2021/03/06 07:50:10;;;;;;;15.93;12.93;;;;;;;17.17;51.54;100904.13;5092884;28;20123;-72
2021/03/06 07:52:42;;;;;;;14.45;11.30;;;;;;;16.84;51.95;100915.53;5092446;28;20032;-71
2021/03/06 07:55:13;;;;;;;12.10;10.85;;;;;;;16.40;53.39;100916.25;5092535;28;20032;-72
2021/03/06 07:58:18;;;;;;;15.98;13.48;;;;;;;16.97;52.17;100911.19;5093739;28;20074;-72
2021/03/06 08:00:51;;;;;;;11.90;9.15;;;;;;;16.73;53.20;100916.22;5091898;28;20036;-73
2021/03/06 08:03:35;;;;;;;15.50;11.60;;;;;;;17.08;51.69;100914.91;5092437;28;20064;-72
2021/03/06 08:06:04;;;;;;;14.63;12.95;;;;;;;17.28;51.65;100919.09;5092935;28;20613;-72
2021/03/06 08:08:33;;;;;;;14.13;12.43;;;;;;;17.59;51.06;100919.69;5092574;28;20035;-72
2021/03/06 08:11:18;;;;;;;13.77;10.95;;;;;;;17.61;50.96;100922.91;5090668;28;20461;-72
2021/03/06 08:13:59;;;;;;;11.25;10.07;;;;;;;17.28;50.38;100930.34;5091780;28;20032;-72
2021/03/06 08:16:27;;;;;;;10.80;9.75;;;;;;;17.54;49.66;100906.00;5091938;28;20020;-72
2021/03/06 08:19:02;;;;;;;15.20;10.18;;;;;;;17.94;49.49;100927.53;5091946;28;20103;-73
2021/03/06 08:21:35;;;;;;;14.77;12.20;;;;;;;17.43;49.72;100927.63;5091530;28;20054;-71
2021/03/06 08:24:16;;;;;;;13.00;10.48;;;;;;;17.56;49.44;100934.53;5092636;28;20133;-72
2021/03/06 08:26:52;;;;;;;12.75;8.23;;;;;;;17.50;50.16;100938.91;5092129;28;20082;-72
2021/03/06 08:29:25;;;;;;;8.45;7.32;;;;;;;17.68;48.80;100937.00;5092459;28;20055;-72
2021/03/06 08:32:08;;;;;;;7.90;7.10;;;;;;;18.18;47.80;100937.28;5091766;28;20466;-71
2021/03/06 08:34:43;;;;;;;13.38;10.38;;;;;;;17.88;49.67;100946.00;5092568;28;20028;-72
2021/03/06 08:37:21;;;;;;;13.60;12.00;;;;;;;18.26;48.78;100940.94;5091821;28;20466;-71
2021/03/06 08:40:00;;;;;;;10.20;9.25;;;;;;;18.29;48.46;100946.59;5092442;28;20348;-72
2021/03/06 08:42:31;;;;;;;9.73;8.70;;;;;;;18.89;45.72;100941.50;5095531;28;20059;-73
2021/03/06 08:45:03;;;;;;;12.82;8.40;;;;;;;19.10;45.85;100935.88;5095442;28;20020;-70
2021/03/06 08:47:32;;;;;;;14.77;9.15;;;;;;;19.14;45.77;100945.16;5096767;28;20386;-70
2021/03/06 08:50:18;;;;;;;13.73;9.65;;;;;;;19.54;44.44;100935.44;5095486;28;20066;-70
2021/03/06 08:53:16;;;;;;;9.43;8.15;;;;;;;19.55;43.92;100939.88;5095407;28;20149;-70
2021/03/06 08:55:45;;;;;;;8.48;7.22;;;;;;;19.42;44.12;100943.53;5066295;28;20039;-71
2021/03/06 08:58:18;;;;;;;8.65;7.82;;;;;;;20.34;42.74;100946.06;5095512;28;20066;-70
2021/03/06 09:00:47;;;;;;;10.68;7.03;;;;;;;20.92;42.11;100950.19;5095197;28;20028;-71
2021/03/06 09:03:20;;;;;;;11.80;8.68;;;;;;;21.21;39.99;100955.63;5095401;28;20036;-69
2021/03/06 09:05:52;;;;;;;9.88;7.43;;;;;;;20.75;39.89;100953.94;5095022;28;20038;-70
2021/03/06 09:08:22;;;;;;;11.95;7.82;;;;;;;20.65;40.77;100949.16;5095604;28;20047;-70
2021/03/06 09:10:49;;;;;;;10.30;7.00;;;;;;;20.89;40.70;100956.69;5095047;28;20039;-70
2021/03/06 09:13:18;;;;;;;9.80;7.18;;;;;;;20.44;40.71;100950.06;5095044;28;20028;-70
2021/03/06 09:15:54;;;;;;;8.55;7.32;;;;;;;21.13;40.02;100954.88;5094869;28;20024;-70
2021/03/06 09:18:26;;;;;;;7.63;6.22;;;;;;;21.81;38.74;100954.25;5094903;28;20024;-70
2021/03/06 09:20:55;;;;;;;12.23;10.93;;;;;;;21.78;37.78;100962.78;5094456;28;20553;-69
2021/03/06 09:23:28;;;;;;;11.27;7.95;;;;;;;22.08;37.58;100960.03;5094747;28;20025;-69
2021/03/06 09:25:55;;;;;;;8.00;5.65;;;;;;;21.53;37.60;100957.41;5095192;28;20032;-69
2021/03/06 09:28:29;;;;;;;6.03;5.07;;;;;;;19.94;40.55;100949.50;5095047;28;20490;-72
2021/03/06 09:30:57;;;;;;;15.02;11.73;;;;;;;19.24;41.26;100961.28;5094684;28;20036;-71
2021/03/06 09:33:34;;;;;;;9.48;8.57;;;;;;;18.91;42.94;100958.81;5094900;28;20028;-72
2021/03/06 09:36:07;;;;;;;6.35;4.72;;;;;;;19.07;43.20;100945.97;5094519;28;20032;-70
2021/03/06 09:38:34;;;;;;;9.68;8.55;;;;;;;18.88;43.15;100954.00;5094932;28;20461;-69
2021/03/06 09:41:01;;;;;;;8.38;6.47;;;;;;;18.53;43.48;100949.88;5094366;28;20032;-70
2021/03/06 09:43:37;;;;;;;9.60;7.88;;;;;;;18.65;42.82;100943.06;5094659;28;20043;-72
2021/03/06 09:46:14;;;;;;;8.95;8.05;;;;;;;18.76;43.18;100955.19;5094823;28;20123;-72
2021/03/06 09:48:50;;;;;;;7.93;6.20;;;;;;;18.82;43.39;100950.78;5094278;28;20035;-70
2021/03/06 09:51:16;;;;;;;9.55;7.30;;;;;;;18.84;43.23;100949.16;5094177;28;20036;-71
2021/03/06 09:53:41;;;;;;;6.72;5.57;;;;;;;18.80;42.53;100958.81;5093510;28;20032;-71
2021/03/06 09:56:14;;;;;;;6.88;5.63;;;;;;;18.44;43.36;100949.47;5094143;28;20028;-70
2021/03/06 09:58:41;;;;;;;9.50;7.43;;;;;;;18.61;43.11;100948.69;5094025;28;20118;-69
2021/03/06 10:01:14;;;;;;;12.10;7.25;;;;;;;18.29;43.82;100951.41;5094055;28;20024;-69
2021/03/06 10:03:40;;;;;;;9.45;6.13;;;;;;;18.72;43.27;100952.38;5093979;28;20035;-69
2021/03/06 10:06:09;;;;;;;6.57;4.78;;;;;;;18.96;42.93;100955.59;5094317;28;20032;-70
2021/03/06 10:08:59;;;;;;;5.82;5.25;;;;;;;18.89;42.24;100953.59;5094076;28;20648;-70
2021/03/06 10:11:37;;;;;;;4.75;4.25;;;;;;;18.70;41.85;100953.97;5093710;28;20039;-70
2021/03/06 10:14:10;;;;;;;6.20;4.72;;;;;;;18.68;42.32;100947.91;5094148;28;20028;-70
2021/03/06 10:16:53;;;;;;;6.97;5.18;;;;;;;18.94;42.60;100946.75;5093036;28;20055;-71
2021/03/06 10:19:25;;;;;;;7.00;6.30;;;;;;;18.90;42.33;100951.56;5094205;28;20612;-70
2021/03/06 10:22:05;;;;;;;7.65;5.20;;;;;;;19.30;42.39;100954.00;5097320;28;20122;-70
2021/03/06 10:24:51;;;;;;;5.97;5.20;;;;;;;19.17;42.61;100952.78;5097104;28;20470;-70
2021/03/06 10:27:18;;;;;;;6.47;5.50;;;;;;;19.22;42.42;100951.59;5096187;28;20057;-71
2021/03/06 10:29:49;;;;;;;6.97;5.38;;;;;;;19.33;42.51;100950.41;5097403;28;20038;-70
2021/03/06 10:32:15;;;;;;;8.07;5.20;;;;;;;19.27;42.28;100954.81;5096653;28;20034;-71
2021/03/06 10:34:48;;;;;;;5.65;5.00;;;;;;;19.01;41.98;100956.00;5096620;28;20032;-71
2021/03/06 10:37:20;;;;;;;6.95;5.00;;;;;;;19.09;42.99;100956.84;5097269;28;20416;-70
2021/03/06 10:40:07;;;;;;;5.40;4.75;;;;;;;19.29;41.93;100949.59;5096956;28;20028;-70
2021/03/06 10:42:50;;;;;;;16.75;7.50;;;;;;;19.07;41.51;100948.78;5096591;28;20028;-70
2021/03/06 10:45:23;;;;;;;6.57;5.45;;;;;;;18.79;41.19;100949.53;5096450;28;20024;-71
2021/03/06 10:47:53;;;;;;;6.20;5.32;;;;;;;19.07;41.27;100943.16;5114389;28;20032;-71
2021/03/06 10:50:27;;;;;;;7.35;6.25;;;;;;;19.30;41.33;100953.22;5080410;28;20466;-70
2021/03/06 10:53:08;;;;;;;6.05;5.28;;;;;;;19.21;41.97;100952.81;5096668;28;20027;-71
2021/03/06 10:55:37;;;;;;;6.97;5.90;;;;;;;19.17;41.99;100952.78;5096508;28;20051;-70
2021/03/06 10:58:06;;;;;;;6.78;6.07;;;;;;;18.83;42.34;100952.38;5096614;28;20055;-71
2021/03/06 11:00:36;;;;;;;7.00;6.30;;;;;;;18.99;42.58;100954.81;5096248;28;20498;-71
2021/03/06 11:03:06;;;;;;;7.40;6.70;;;;;;;19.09;42.42;100954.03;5091023;28;20042;-70
2021/03/06 11:05:35;;;;;;;9.43;6.53;;;;;;;19.05;42.74;100950.38;5096040;28;20420;-70
2021/03/06 11:08:20;;;;;;;10.20;6.47;;;;;;;19.57;41.58;100953.56;5097028;28;20036;-71
2021/03/06 11:10:51;;;;;;;8.70;6.47;;;;;;;20.11;39.67;100948.63;5096009;28;20057;-70
2021/03/06 11:13:20;;;;;;;7.97;5.97;;;;;;;20.67;38.14;100946.75;5095898;28;20089;-69
2021/03/06 11:15:53;;;;;;;8.40;6.18;;;;;;;20.75;37.84;100947.50;5096210;28;20470;-71
2021/03/06 11:18:22;;;;;;;;;;;;;;;21.06;36.65;100935.13;5096868;28;20432;-71
2021/03/06 11:20:51;;;;;;;5.85;5.25;;;;;;;21.51;36.39;100935.16;5095399;28;19976;-70
2021/03/06 11:23:19;;;;;;;9.18;6.30;;;;;;;21.87;35.51;100938.41;5095706;28;20066;-70
2021/03/06 11:25:47;;;;;;;7.30;5.63;;;;;;;21.77;35.35;100933.66;5096009;28;20031;-71
2021/03/06 11:28:15;;;;;;;9.77;6.35;;;;;;;21.38;36.42;100919.94;5095625;28;20548;-70
2021/03/06 11:30:46;;;;;;;9.57;7.47;;;;;;;21.52;36.27;100927.47;5095611;28;20032;-70
2021/03/06 11:33:14;;;;;;;9.88;8.10;;;;;;;21.30;38.91;100922.00;5095683;28;20031;-70
2021/03/06 11:35:47;;;;;;;9.02;8.10;;;;;;;19.91;41.43;100927.69;5095644;28;20020;-70